Time;durP1;ratioP1;P1;durP2;ratioP2;P2;SDS_P1;SDS_P2;PMS_P1;PMS_P2;Temp;Humidity;BMP_temperature;BMP_pressure;BME280_temperature;BME280_humidity;BME280_pressure;Samples;Min_cycle;Max_cycle;Signal;HPM_P1;HPM_P2
2024/01/06 00:04:57;;;;;;;36.42;16.05;;;;;;;;;;10325473;28;20035;-81
2024/01/06 00:09:58;;;;;;;41.28;16.08;;;;;;;;;;10333375;28;20620;-87
2024/01/06 00:15:01;;;;;;;35.40;14.60;;;;;;;;;;10338882;28;20093;-83
2024/01/06 00:20:02;;;;;;;51.85;16.42;;;;;;;;;;10327977;28;20316;-87
2024/01/06 00:25:02;;;;;;;32.47;16.25;;;;;;;;;;10312550;28;20046;-84
2024/01/06 00:30:03;;;;;;;41.40;14.95;;;;;;;;;;10300332;28;20312;-83
2024/01/06 00:35:03;;;;;;;39.13;16.13;;;;;;;;;;10319470;28;20031;-84
2024/01/06 00:40:04;;;;;;;52.13;18.45;;;;;;;;;;10321603;28;20077;-84
2024/01/06 00:45:05;;;;;;;64.07;20.85;;;;;;;;;;10323606;28;20094;-85
2024/01/06 00:50:05;;;;;;;44.30;17.50;;;;;;;;;;10295518;28;20022;-85
2024/01/06 00:55:06;;;;;;;42.65;18.90;;;;;;;;;;10325441;28;20055;-79
2024/01/06 01:00:06;;;;;;;49.47;19.40;;;;;;;;;;10319192;28;20014;-84
2024/01/06 01:05:07;;;;;;;40.70;16.43;;;;;;;;;;10322249;28;20274;-84
2024/01/06 01:10:08;;;;;;;39.38;18.17;;;;;;;;;;10312786;28;20276;-83
2024/01/06 01:15:09;;;;;;;41.72;17.70;;;;;;;;;;10325546;28;20022;-79
2024/01/06 01:20:09;;;;;;;45.13;16.03;;;;;;;;;;10326892;28;20022;-89
2024/01/06 01:25:12;;;;;;;49.97;16.33;;;;;;;;;;10317766;28;20028;-87
2024/01/06 01:30:13;;;;;;;35.35;16.95;;;;;;;;;;10305222;28;20065;-84
2024/01/06 01:35:14;;;;;;;31.00;16.27;;;;;;;;;;10308099;28;20061;-84
2024/01/06 01:40:14;;;;;;;38.55;17.92;;;;;;;;;;10323119;28;20030;-85
2024/01/06 01:45:14;;;;;;;37.72;17.10;;;;;;;;;;10332439;28;20024;-85
2024/01/06 01:50:15;;;;;;;49.07;18.27;;;;;;;;;;10318566;28;20057;-85
2024/01/06 01:55:15;;;;;;;38.80;16.10;;;;;;;;;;10302377;28;20083;-85
2024/01/06 02:00:15;;;;;;;45.17;18.30;;;;;;;;;;10307997;28;20019;-84
2024/01/06 02:05:16;;;;;;;39.00;17.07;;;;;;;;;;10313693;28;20297;-85
2024/01/06 02:10:16;;;;;;;49.40;20.13;;;;;;;;;;10306296;28;20333;-85
2024/01/06 02:15:17;;;;;;;44.67;21.50;;;;;;;;;;10319151;28;20339;-86
2024/01/06 02:20:19;;;;;;;29.08;14.18;;;;;;;;;;10326138;28;20018;-83
2024/01/06 02:25:20;;;;;;;36.25;10.70;;;;;;;;;;10318969;28;20045;-85
2024/01/06 02:30:20;;;;;;;19.40;9.18;;;;;;;;;;10304549;28;20022;-84
2024/01/06 02:35:20;;;;;;;15.35;7.43;;;;;;;;;;10299892;28;20026;-81
2024/01/06 02:40:20;;;;;;;13.37;7.53;;;;;;;;;;10313286;28;20069;-81
2024/01/06 02:45:21;;;;;;;16.42;8.20;;;;;;;;;;10317101;28;20207;-80
2024/01/06 02:50:22;;;;;;;26.05;10.98;;;;;;;;;;10310794;28;20023;-78
2024/01/06 02:55:22;;;;;;;25.63;12.82;;;;;;;;;;10316328;28;20048;-79
2024/01/06 03:00:22;;;;;;;27.27;12.75;;;;;;;;;;10306745;28;20021;-79
2024/01/06 03:05:22;;;;;;;29.55;13.75;;;;;;;;;;10325699;28;20240;-76
2024/01/06 03:10:22;;;;;;;26.50;12.38;;;;;;;;;;10332025;28;20022;-77
2024/01/06 03:15:23;;;;;;;20.65;11.57;;;;;;;;;;10337703;28;20328;-77
2024/01/06 03:20:23;;;;;;;20.42;8.88;;;;;;;;;;10337602;28;20252;-77
2024/01/06 03:25:23;;;;;;;13.80;7.80;;;;;;;;;;10332628;28;20022;-77
2024/01/06 03:30:24;;;;;;;15.02;6.45;;;;;;;;;;10337382;28;20052;-78
2024/01/06 03:35:24;;;;;;;13.20;6.78;;;;;;;;;;10337043;28;20018;-78
2024/01/06 03:40:24;;;;;;;11.98;6.20;;;;;;;;;;10337084;28;20072;-77
2024/01/06 03:45:24;;;;;;;15.50;7.78;;;;;;;;;;10337443;28;20084;-76
2024/01/06 03:50:25;;;;;;;14.18;7.00;;;;;;;;;;10337578;28;20025;-77
2024/01/06 03:55:25;;;;;;;11.18;7.03;;;;;;;;;;10337619;28;20030;-78
2024/01/06 04:00:26;;;;;;;19.95;8.60;;;;;;;;;;10337094;28;20308;-78
2024/01/06 04:05:26;;;;;;;13.52;5.93;;;;;;;;;;10336617;28;20060;-77
2024/01/06 04:10:26;;;;;;;20.40;7.32;;;;;;;;;;10336461;28;20331;-78
2024/01/06 04:15:26;;;;;;;15.52;7.63;;;;;;;;;;10336455;28;20291;-78
2024/01/06 04:20:27;;;;;;;16.20;7.57;;;;;;;;;;10336615;28;20252;-78
2024/01/06 04:25:27;;;;;;;12.27;7.22;;;;;;;;;;10336560;28;20026;-78
2024/01/06 04:30:27;;;;;;;12.88;6.05;;;;;;;;;;10340187;28;20045;-77
2024/01/06 04:35:27;;;;;;;11.93;5.78;;;;;;;;;;10344037;28;20018;-78
2024/01/06 04:40:28;;;;;;;9.15;4.88;;;;;;;;;;10327862;28;20126;-77
2024/01/06 04:45:28;;;;;;;15.90;6.30;;;;;;;;;;10302979;28;20023;-78
2024/01/06 04:50:28;;;;;;;11.17;5.77;;;;;;;;;;10302730;28;20069;-77
2024/01/06 04:55:28;;;;;;;12.15;7.53;;;;;;;;;;10302618;28;20142;-79
2024/01/06 05:00:29;;;;;;;16.38;7.93;;;;;;;;;;10302157;28;20300;-76
2024/01/06 05:05:29;;;;;;;12.70;7.22;;;;;;;;;;10302605;28;20026;-79
2024/01/06 05:10:29;;;;;;;13.48;6.85;;;;;;;;;;10302499;28;20344;-78
2024/01/06 05:15:29;;;;;;;18.17;7.25;;;;;;;;;;10285787;28;20093;-78
2024/01/06 05:20:30;;;;;;;13.32;7.30;;;;;;;;;;10337152;28;20224;-78
2024/01/06 05:25:30;;;;;;;15.65;8.35;;;;;;;;;;10342999;28;20049;-79
2024/01/06 05:30:30;;;;;;;17.02;9.55;;;;;;;;;;10341919;28;20014;-76
2024/01/06 05:35:30;;;;;;;12.57;6.65;;;;;;;;;;10341820;28;20086;-76
2024/01/06 05:40:31;;;;;;;12.25;6.32;;;;;;;;;;10341075;28;20045;-77
2024/01/06 05:45:31;;;;;;;11.38;5.65;;;;;;;;;;10341349;28;20032;-77
2024/01/06 05:50:31;;;;;;;6.50;4.65;;;;;;;;;;10341436;28;20021;-78
2024/01/06 05:55:31;;;;;;;13.57;5.95;;;;;;;;;;10340325;28;20108;-78
2024/01/06 06:00:32;;;;;;;9.30;4.25;;;;;;;;;;10339582;28;20026;-78
2024/01/06 06:05:32;;;;;;;6.95;3.72;;;;;;;;;;10339672;28;20030;-76
2024/01/06 06:10:41;;;;;;;12.40;5.65;;;;;;;;;;10340419;28;20026;-79
2024/01/06 06:15:41;;;;;;;9.60;4.88;;;;;;;;;;10307690;28;20105;-76
2024/01/06 06:20:43;;;;;;;7.75;3.90;;;;;;;;;;10302377;28;20021;-78
2024/01/06 06:25:43;;;;;;;9.30;4.68;;;;;;;;;;10339739;28;20022;-79
2024/01/06 06:30:44;;;;;;;10.77;4.75;;;;;;;;;;10335580;28;20274;-79
2024/01/06 06:35:44;;;;;;;15.43;5.73;;;;;;;;;;10336030;28;20568;-78
2024/01/06 06:40:44;;;;;;;13.38;6.10;;;;;;;;;;10333029;28;20026;-79
2024/01/06 06:45:44;;;;;;;8.75;4.55;;;;;;;;;;10339178;28;20040;-78
2024/01/06 06:50:45;;;;;;;13.55;4.15;;;;;;;;;;10302307;28;20340;-83
2024/01/06 06:55:45;;;;;;;11.10;5.43;;;;;;;;;;10326522;28;20042;-90
2024/01/06 07:00:45;;;;;;;10.90;7.28;;;;;;;;;;10309128;28;20030;-90
2024/01/06 07:05:45;;;;;;;15.07;7.83;;;;;;;;;;10308102;28;20022;-86
2024/01/06 07:10:46;;;;;;;18.65;9.02;;;;;;;;;;10306060;28;20591;-83
2024/01/06 07:15:46;;;;;;;18.55;8.88;;;;;;;;;;10301330;28;20086;-83
2024/01/06 07:20:46;;;;;;;21.35;8.00;;;;;;;;;;10307448;28;20010;-84
2024/01/06 07:25:46;;;;;;;17.45;8.80;;;;;;;;;;10288367;28;20031;-82
2024/01/06 07:30:47;;;;;;;17.75;9.00;;;;;;;;;;10316328;28;20010;-83
2024/01/06 07:35:47;;;;;;;18.85;8.00;;;;;;;;;;10309243;28;20027;-81
2024/01/06 07:40:47;;;;;;;23.83;8.18;;;;;;;;;;10313043;28;20057;-81
2024/01/06 07:45:48;;;;;;;30.65;8.30;;;;;;;;;;10314308;28;20022;-83
2024/01/06 07:50:48;;;;;;;22.25;8.57;;;;;;;;;;10305037;28;20034;-82
2024/01/06 07:55:48;;;;;;;28.70;9.30;;;;;;;;;;10311513;28;20042;-82
2024/01/06 08:00:49;;;;;;;19.17;9.85;;;;;;;;;;10311968;28;20019;-82
2024/01/06 08:05:49;;;;;;;12.60;5.40;;;;;;;;;;10310541;28;20061;-83
2024/01/06 08:10:50;;;;;;;16.20;5.25;;;;;;;;;;10320368;28;20064;-81
2024/01/06 08:15:50;;;;;;;17.80;6.30;;;;;;;;;;10316311;28;20098;-83
2024/01/06 08:20:50;;;;;;;14.63;5.70;;;;;;;;;;10326110;28;20037;-82
2024/01/06 08:25:51;;;;;;;12.18;5.43;;;;;;;;;;10320925;28;20022;-83
2024/01/06 08:30:51;;;;;;;19.02;4.70;;;;;;;;;;10324254;28;20270;-82
2024/01/06 08:35:51;;;;;;;12.50;4.63;;;;;;;;;;10324543;28;20021;-83
2024/01/06 08:40:53;;;;;;;7.70;4.10;;;;;;;;;;10319028;28;20041;-82
2024/01/06 08:45:53;;;;;;;16.27;5.07;;;;;;;;;;10317149;28;20261;-83
2024/01/06 08:50:53;;;;;;;9.95;4.70;;;;;;;;;;10319878;28;20043;-82
2024/01/06 08:55:54;;;;;;;13.35;5.03;;;;;;;;;;10323261;28;20038;-83
2024/01/06 09:00:54;;;;;;;15.03;4.73;;;;;;;;;;10294773;28;20019;-82
2024/01/06 09:06:00;;;;;;;15.50;7.10;;;;;;;;;;10311654;28;20046;-82
2024/01/06 09:11:00;;;;;;;15.18;7.20;;;;;;;;;;10298849;28;20224;-82
2024/01/06 09:16:00;;;;;;;17.50;7.75;;;;;;;;;;10322546;28;20021;-81
2024/01/06 09:21:01;;;;;;;27.00;9.07;;;;;;;;;;10325071;28;20026;-80
2024/01/06 09:26:01;;;;;;;24.75;9.23;;;;;;;;;;10303023;28;20027;-83
2024/01/06 09:31:01;;;;;;;16.10;9.27;;;;;;;;;;10297443;28;20231;-83
2024/01/06 09:36:02;;;;;;;19.33;7.97;;;;;;;;;;10315885;28;20022;-83
2024/01/06 09:41:02;;;;;;;20.48;9.48;;;;;;;;;;10317991;28;20034;-84
2024/01/06 09:46:10;;;;;;;26.50;11.95;;;;;;;;;;10318617;28;20100;-83
2024/01/06 09:51:11;;;;;;;33.38;13.52;;;;;;;;;;10324059;28;20041;-82
2024/01/06 09:56:12;;;;;;;37.22;13.93;;;;;;;;;;10303979;28;20360;-83
2024/01/06 10:01:14;;;;;;;38.00;17.55;;;;;;;;;;10301548;28;20064;-83
2024/01/06 10:06:15;;;;;;;38.90;15.73;;;;;;;;;;10318664;28;20053;-84
2024/01/06 10:11:15;;;;;;;45.20;20.33;;;;;;;;;;10303955;28;20026;-82
2024/01/06 10:16:15;;;;;;;52.85;23.00;;;;;;;;;;10320927;28;20029;-83
2024/01/06 10:21:17;;;;;;;61.63;25.05;;;;;;;;;;10314823;28;20025;-83
2024/01/06 10:26:18;;;;;;;56.70;22.65;;;;;;;;;;10312964;28;20030;-83
2024/01/06 10:31:18;;;;;;;54.63;24.40;;;;;;;;;;10311069;28;20086;-82
2024/01/06 10:36:19;;;;;;;52.05;21.85;;;;;;;;;;10314473;28;20370;-82
2024/01/06 10:41:20;;;;;;;45.72;21.23;;;;;;;;;;10308091;28;20101;-80
2024/01/06 10:46:21;;;;;;;48.25;22.23;;;;;;;;;;10310922;28;20022;-82
2024/01/06 10:51:23;;;;;;;47.38;20.83;;;;;;;;;;10302884;28;20220;-81
2024/01/06 10:56:24;;;;;;;40.35;18.70;;;;;;;;;;10309648;28;20022;-80
2024/01/06 11:01:24;;;;;;;41.40;18.60;;;;;;;;;;10318413;28;20109;-84
2024/01/06 11:06:25;;;;;;;40.67;16.05;;;;;;;;;;10316355;28;20026;-84
2024/01/06 11:11:26;;;;;;;36.85;13.82;;;;;;;;;;10305188;28;20022;-82
2024/01/06 11:16:36;;;;;;;37.88;16.35;;;;;;;;;;10304247;28;20022;-82
2024/01/06 11:21:36;;;;;;;37.30;13.57;;;;;;;;;;10316357;28;20015;-82
2024/01/06 11:26:41;;;;;;;26.40;15.32;;;;;;;;;;10315482;28;20038;-83
2024/01/06 11:31:43;;;;;;;24.20;9.13;;;;;;;;;;10318493;28;20018;-81
2024/01/06 11:36:44;;;;;;;21.35;8.25;;;;;;;;;;10289668;28;20018;-83
2024/01/06 11:41:47;;;;;;;26.52;9.10;;;;;;;;;;10315809;28;20383;-85
2024/01/06 11:46:49;;;;;;;19.92;8.48;;;;;;;;;;10307218;28;20022;-82
2024/01/06 11:51:50;;;;;;;18.45;7.57;;;;;;;;;;10303549;28;20304;-84
2024/01/06 11:56:53;;;;;;;13.98;6.50;;;;;;;;;;10305438;28;20316;-82
2024/01/06 12:01:59;;;;;;;14.98;7.88;;;;;;;;;;10293946;28;20023;-83
2024/01/06 12:07:09;;;;;;;34.45;9.57;;;;;;;;;;10297633;28;20027;-83
2024/01/06 12:12:10;;;;;;;28.45;8.50;;;;;;;;;;10289722;28;20081;-82
2024/01/06 12:17:12;;;;;;;30.08;11.27;;;;;;;;;;10288940;28;20272;-82
2024/01/06 12:22:14;;;;;;;29.58;18.13;;;;;;;;;;10312081;28;20077;-82
2024/01/06 12:27:14;;;;;;;54.33;48.78;;;;;;;;;;10308963;28;20113;-83
2024/01/06 12:32:15;;;;;;;122.23;114.33;;;;;;;;;;10292201;28;20308;-82
2024/01/06 12:37:15;;;;;;;138.80;129.77;;;;;;;;;;10308318;28;20296;-83
2024/01/06 12:42:19;;;;;;;192.93;181.10;;;;;;;;;;10295284;28;20356;-83
2024/01/06 12:47:21;;;;;;;187.35;174.32;;;;;;;;;;10294890;28;20090;-83
2024/01/06 12:52:22;;;;;;;34.30;28.83;;;;;;;;;;10300672;28;20326;-83
2024/01/06 12:57:22;;;;;;;35.95;26.02;;;;;;;;;;10283921;28;20031;-82
2024/01/06 13:02:22;;;;;;;22.70;13.60;;;;;;;;;;10297421;28;20011;-82
2024/01/06 13:07:22;;;;;;;35.28;14.30;;;;;;;;;;10314901;28;20316;-83
2024/01/06 13:12:24;;;;;;;114.70;106.90;;;;;;;;;;10313078;28;20029;-83
2024/01/06 13:17:25;;;;;;;29.40;26.35;;;;;;;;;;10314187;28;20033;-82
2024/01/06 13:22:26;;;;;;;55.87;51.30;;;;;;;;;;10321943;28;20014;-83
2024/01/06 13:27:29;;;;;;;49.75;45.95;;;;;;;;;;10320372;28;20101;-82
2024/01/06 13:32:29;;;;;;;32.08;20.27;;;;;;;;;;10317839;28;20358;-83
2024/01/06 13:37:30;;;;;;;53.47;49.70;;;;;;;;;;10312133;28;20022;-83
2024/01/06 13:42:31;;;;;;;86.55;80.72;;;;;;;;;;10320107;28;20042;-84
2024/01/06 13:47:31;;;;;;;168.30;158.50;;;;;;;;;;10323280;28;20021;-85
2024/01/06 13:52:31;;;;;;;157.27;148.38;;;;;;;;;;10318944;28;20078;-84
2024/01/06 13:57:32;;;;;;;171.45;161.50;;;;;;;;;;10294771;28;20326;-85
2024/01/06 14:02:32;;;;;;;224.75;212.57;;;;;;;;;;10323311;28;20023;-85
2024/01/06 14:07:33;;;;;;;264.93;250.30;;;;;;;;;;10323026;28;20061;-84
2024/01/06 14:12:34;;;;;;;309.33;291.80;;;;;;;;;;10324163;28;20025;-86
2024/01/06 14:17:34;;;;;;;192.77;182.18;;;;;;;;;;10322391;28;20061;-86
2024/01/06 14:22:34;;;;;;;169.48;159.85;;;;;;;;;;10315757;28;20018;-85
2024/01/06 14:27:35;;;;;;;129.53;121.10;;;;;;;;;;10303428;28;20097;-85
2024/01/06 14:32:36;;;;;;;162.37;151.60;;;;;;;;;;10299124;28;20276;-86
2024/01/06 14:37:37;;;;;;;169.52;160.02;;;;;;;;;;10319050;28;20190;-84
2024/01/06 14:42:37;;;;;;;169.70;158.73;;;;;;;;;;10316110;28;20026;-85
2024/01/06 14:47:37;;;;;;;161.20;152.10;;;;;;;;;;10302605;28;20237;-86
2024/01/06 14:52:38;;;;;;;184.38;173.60;;;;;;;;;;10306058;28;20076;-87
2024/01/06 14:57:38;;;;;;;164.63;155.13;;;;;;;;;;10315956;28;20038;-87
2024/01/06 15:02:39;;;;;;;190.43;179.30;;;;;;;;;;10317670;28;20114;-88
2024/01/06 15:07:39;;;;;;;226.35;213.10;;;;;;;;;;10302665;28;20280;-82
2024/01/06 15:12:39;;;;;;;246.07;231.93;;;;;;;;;;10321747;28;20038;-83
2024/01/06 15:17:40;;;;;;;315.33;296.90;;;;;;;;;;10314552;28;20019;-83
2024/01/06 15:22:40;;;;;;;294.00;277.00;;;;;;;;;;10302370;28;20049;-82
2024/01/06 15:27:40;;;;;;;321.30;301.83;;;;;;;;;;10313752;28;20102;-83
2024/01/06 15:32:41;;;;;;;245.65;230.30;;;;;;;;;;10314422;28;20010;-74
2024/01/06 15:37:41;;;;;;;242.95;227.13;;;;;;;;;;10318865;28;20320;-79
2024/01/06 15:42:42;;;;;;;219.35;205.75;;;;;;;;;;10321315;28;20057;-82
2024/01/06 15:47:42;;;;;;;333.23;314.80;;;;;;;;;;10313371;28;20026;-80
2024/01/06 15:52:45;;;;;;;238.80;225.23;;;;;;;;;;10296990;28;20031;-80
2024/01/06 15:57:45;;;;;;;276.85;261.35;;;;;;;;;;10297849;28;20024;-85
2024/01/06 16:02:46;;;;;;;324.88;306.25;;;;;;;;;;10319266;28;20010;-86
2024/01/06 16:07:52;;;;;;;335.92;317.08;;;;;;;;;;10288629;28;20073;-84
2024/01/06 16:12:53;;;;;;;391.83;368.13;;;;;;;;;;10308909;28;20022;-88
2024/01/06 16:17:53;;;;;;;436.00;409.13;;;;;;;;;;10302689;28;20032;-89
2024/01/06 16:22:54;;;;;;;464.80;436.20;;;;;;;;;;10298783;28;20019;-77
2024/01/06 16:27:54;;;;;;;543.85;508.45;;;;;;;;;;10324368;28;20029;-80
2024/01/06 16:32:55;;;;;;;635.38;592.47;;;;;;;;;;10306781;28;20024;-81
2024/01/06 16:37:57;;;;;;;450.87;421.37;;;;;;;;;;10318852;28;20022;-87
2024/01/06 16:42:57;;;;;;;499.95;467.38;;;;;;;;;;10336683;28;20278;-88
2024/01/06 16:47:59;;;;;;;593.28;552.95;;;;;;;;;;10326663;28;20026;-82
2024/01/06 16:52:59;;;;;;;650.97;605.42;;;;;;;;;;10311994;28;20034;-80
2024/01/06 16:58:01;;;;;;;699.92;648.50;;;;;;;;;;10313587;23;20058;-80
2024/01/06 17:03:01;;;;;;;731.70;677.00;;;;;;;;;;10284631;28;20015;-77
2024/01/06 17:08:03;;;;;;;704.47;649.28;;;;;;;;;;10289548;28;20033;-78
2024/01/06 17:13:04;;;;;;;305.63;287.75;;;;;;;;;;10292501;28;20033;-75
2024/01/06 17:18:04;;;;;;;282.55;266.58;;;;;;;;;;10276662;28;20529;-81
2024/01/06 17:23:05;;;;;;;302.58;285.13;;;;;;;;;;10293086;28;20031;-79
2024/01/06 17:28:05;;;;;;;284.58;268.52;;;;;;;;;;10278978;28;20077;-78
2024/01/06 17:33:06;;;;;;;361.10;339.83;;;;;;;;;;10280077;28;20034;-80
2024/01/06 17:38:06;;;;;;;522.55;488.73;;;;;;;;;;10272582;28;20045;-80
2024/01/06 17:43:08;;;;;;;464.13;434.42;;;;;;;;;;10298093;28;20473;-80
2024/01/06 17:48:10;;;;;;;544.22;507.77;;;;;;;;;;10261636;28;20144;-78
2024/01/06 17:53:11;;;;;;;418.35;391.77;;;;;;;;;;10269702;28;20551;-84
2024/01/06 17:58:12;;;;;;;15.50;8.85;;;;;;;;;;10268340;28;20050;-71
2024/01/06 18:03:13;;;;;;;16.57;8.17;;;;;;;;;;10298836;28;20473;-71
2024/01/06 18:08:13;;;;;;;595.33;554.40;;;;;;;;;;10297460;28;20066;-74
2024/01/06 18:13:14;;;;;;;596.45;554.67;;;;;;;;;;10283235;28;20109;-76
2024/01/06 18:18:14;;;;;;;640.90;594.25;;;;;;;;;;10283024;28;20030;-77
2024/01/06 18:23:14;;;;;;;452.77;421.65;;;;;;;;;;10281891;28;20117;-78
2024/01/06 18:28:14;;;;;;;367.98;345.95;;;;;;;;;;10271747;28;20037;-75
2024/01/06 18:33:15;;;;;;;389.95;365.38;;;;;;;;;;10267997;28;20023;-78
2024/01/06 18:38:15;;;;;;;513.88;478.83;;;;;;;;;;10263929;28;20031;-78
2024/01/06 18:43:15;;;;;;;496.48;462.15;;;;;;;;;;10264784;28;20030;-79
2024/01/06 18:48:15;;;;;;;406.15;380.13;;;;;;;;;;10284006;28;20038;-81
2024/01/06 18:53:15;;;;;;;19.63;6.55;;;;;;;;;;10284533;28;20110;-75
2024/01/06 18:58:16;;;;;;;12.05;6.32;;;;;;;;;;10287902;28;20047;-76
2024/01/06 19:03:16;;;;;;;327.83;309.63;;;;;;;;;;10284327;28;20076;-79
2024/01/06 19:08:16;;;;;;;320.03;301.57;;;;;;;;;;10283447;28;20497;-76
2024/01/06 19:13:17;;;;;;;320.02;301.38;;;;;;;;;;10278553;28;20092;-79
2024/01/06 19:18:17;;;;;;;265.90;251.25;;;;;;;;;;10272937;28;20117;-79
2024/01/06 19:23:19;;;;;;;306.77;288.92;;;;;;;;;;10282936;28;20019;-77
2024/01/06 19:28:20;;;;;;;16.88;7.72;;;;;;;;;;10266333;28;20118;-76
2024/01/06 19:33:20;;;;;;;286.70;269.83;;;;;;;;;;10293001;28;20023;-76
2024/01/06 19:38:20;;;;;;;303.67;284.55;;;;;;;;;;10300110;28;20022;-76
2024/01/06 19:43:20;;;;;;;236.90;223.60;;;;;;;;;;10288784;28;20520;-76
2024/01/06 19:48:21;;;;;;;276.92;260.27;;;;;;;;;;10290242;28;20022;-74
2024/01/06 19:53:21;;;;;;;198.68;187.10;;;;;;;;;;10275314;28;20026;-76
2024/01/06 19:58:22;;;;;;;263.88;249.13;;;;;;;;;;10282710;28;20481;-77
2024/01/06 20:03:22;;;;;;;354.50;332.80;;;;;;;;;;10286869;28;20027;-79
2024/01/06 20:08:22;;;;;;;164.00;154.57;;;;;;;;;;10277637;28;20031;-81
2024/01/06 20:13:22;;;;;;;592.55;550.53;;;;;;;;;;10274649;28;20409;-77
2024/01/06 20:18:25;;;;;;;68.55;62.97;;;;;;;;;;10290824;28;20023;-84
2024/01/06 20:23:26;;;;;;;567.88;528.40;;;;;;;;;;10301347;28;20040;-77
2024/01/06 20:28:26;;;;;;;144.88;136.95;;;;;;;;;;10294553;28;20117;-81
2024/01/06 20:33:32;;;;;;;706.25;646.08;;;;;;;;;;10303777;28;20058;-76
2024/01/06 20:38:32;;;;;;;666.40;617.17;;;;;;;;;;10303482;28;20625;-77
2024/01/06 20:43:33;;;;;;;610.63;566.43;;;;;;;;;;10319899;23;20124;-81
2024/01/06 20:48:33;;;;;;;612.95;569.28;;;;;;;;;;10295884;28;20277;-76
2024/01/06 20:53:35;;;;;;;622.78;578.83;;;;;;;;;;10290063;28;20473;-76
2024/01/06 20:58:36;;;;;;;671.40;622.47;;;;;;;;;;10300511;23;20056;-75
2024/01/06 21:03:38;;;;;;;651.78;605.42;;;;;;;;;;10355384;28;20022;-74
2024/01/06 21:08:38;;;;;;;662.20;613.10;;;;;;;;;;10351945;28;20037;-74
2024/01/06 21:13:39;;;;;;;643.25;594.95;;;;;;;;;;10344397;28;20025;-75
2024/01/06 21:18:39;;;;;;;612.38;566.22;;;;;;;;;;10349716;28;20311;-74
2024/01/06 21:23:39;;;;;;;663.80;614.88;;;;;;;;;;10354839;28;20188;-75
2024/01/06 21:28:39;;;;;;;637.67;591.53;;;;;;;;;;10349261;28;20017;-74
2024/01/06 21:33:39;;;;;;;648.10;601.17;;;;;;;;;;10349561;28;20026;-74
2024/01/06 21:38:40;;;;;;;693.65;642.95;;;;;;;;;;10343279;28;20350;-74
2024/01/06 21:43:40;;;;;;;658.15;608.58;;;;;;;;;;10350196;28;20022;-74
2024/01/06 21:48:41;;;;;;;660.75;609.50;;;;;;;;;;10350717;28;20014;-75
2024/01/06 21:53:41;;;;;;;679.70;625.88;;;;;;;;;;10363548;28;20068;-75
2024/01/06 21:58:41;;;;;;;678.13;620.58;;;;;;;;;;10361788;28;20331;-76
2024/01/06 22:03:41;;;;;;;683.13;627.30;;;;;;;;;;10362016;28;20230;-74
2024/01/06 22:08:42;;;;;;;715.70;661.13;;;;;;;;;;10378851;28;20538;-75
2024/01/06 22:13:42;;;;;;;655.53;604.78;;;;;;;;;;10378937;28;20024;-76
2024/01/06 22:18:42;;;;;;;640.47;588.83;;;;;;;;;;10361016;28;20272;-76
2024/01/06 22:23:42;;;;;;;694.50;639.22;;;;;;;;;;10360267;28;20327;-75
2024/01/06 22:28:43;;;;;;;690.80;632.10;;;;;;;;;;10375735;28;20377;-75
2024/01/06 22:33:43;;;;;;;670.35;610.20;;;;;;;;;;10379311;28;20041;-77
2024/01/06 22:38:44;;;;;;;639.05;581.38;;;;;;;;;;10360230;28;20048;-75
2024/01/06 22:43:44;;;;;;;698.75;637.15;;;;;;;;;;10378129;28;20310;-76
2024/01/06 22:48:44;;;;;;;701.03;638.90;;;;;;;;;;10360095;28;20047;-74
2024/01/06 22:53:45;;;;;;;696.88;635.15;;;;;;;;;;10377255;28;20125;-75
2024/01/06 22:58:45;;;;;;;679.70;615.83;;;;;;;;;;10359071;28;20275;-75
2024/01/06 23:03:45;;;;;;;657.95;599.22;;;;;;;;;;10341953;28;20501;-75
2024/01/06 23:08:46;;;;;;;652.38;592.25;;;;;;;;;;10349867;28;20050;-75
2024/01/06 23:13:46;;;;;;;646.07;586.97;;;;;;;;;;10376918;28;20056;-74
2024/01/06 23:18:46;;;;;;;640.50;581.58;;;;;;;;;;10376243;28;20041;-75
2024/01/06 23:23:47;;;;;;;647.17;586.70;;;;;;;;;;10376036;28;20088;-75
2024/01/06 23:28:48;;;;;;;635.97;575.67;;;;;;;;;;10376811;28;20089;-76
2024/01/06 23:33:48;;;;;;;621.42;560.03;;;;;;;;;;10375265;28;20066;-74
2024/01/06 23:38:48;;;;;;;631.97;568.87;;;;;;;;;;10376042;28;20307;-74
2024/01/06 23:43:49;;;;;;;661.00;597.05;;;;;;;;;;10358033;28;20295;-76
2024/01/06 23:48:49;;;;;;;658.50;594.83;;;;;;;;;;10358670;28;20263;-75
2024/01/06 23:53:49;;;;;;;679.40;615.72;;;;;;;;;;10375445;28;20053;-74
2024/01/06 23:58:49;;;;;;;643.60;581.22;;;;;;;;;;10357843;28;20231;-75
